createdAt,value
2019-01-22T00:01:08.650Z,-4.80
2019-01-22T00:06:12.126Z,-4.80
2019-01-22T00:11:15.403Z,-4.70
2019-01-22T00:16:18.759Z,-4.80
2019-01-22T00:21:22.827Z,-4.90
2019-01-22T00:26:28.087Z,-4.90
2019-01-22T00:31:32.081Z,-5.00
2019-01-22T00:36:36.852Z,-5.00
2019-01-22T00:41:40.785Z,-5.00
2019-01-22T00:46:44.931Z,-4.90
2019-01-22T00:51:50.121Z,-5.00
2019-01-22T00:56:55.229Z,-5.00
2019-01-22T01:01:59.777Z,-5.10
2019-01-22T01:07:04.954Z,-5.10
2019-01-22T01:12:10.034Z,-5.00
2019-01-22T01:17:15.193Z,-5.10
2019-01-22T01:22:20.201Z,-5.00
2019-01-22T01:27:26.215Z,-4.90
2019-01-22T01:32:31.146Z,-4.90
2019-01-22T01:37:36.180Z,-4.80
2019-01-22T01:42:41.351Z,-4.70
2019-01-22T01:47:57.802Z,-4.50
2019-01-22T01:53:03.055Z,-4.60
2019-01-22T01:58:08.294Z,-4.70
2019-01-22T02:03:13.257Z,-4.80
2019-01-22T02:08:18.257Z,-4.90
2019-01-22T02:13:34.600Z,-5.00
2019-01-22T02:18:55.818Z,-5.00
2019-01-22T02:24:24.683Z,-5.10
2019-01-22T02:30:22.031Z,-5.20
2019-01-22T02:35:49.708Z,-5.30
2019-01-22T02:41:02.327Z,-5.30
2019-01-22T02:46:48.279Z,-5.30
2019-01-22T02:52:39.043Z,-5.40
2019-01-22T02:58:45.429Z,-5.40
2019-01-22T03:04:15.457Z,-5.40
2019-01-22T03:09:52.887Z,-5.40
2019-01-22T03:15:40.156Z,-5.50
2019-01-22T03:21:26.426Z,-5.50
2019-01-22T03:27:11.935Z,-5.50
2019-01-22T03:32:37.424Z,-5.50
2019-01-22T03:38:20.275Z,-5.60
2019-01-22T03:43:48.564Z,-5.70
2019-01-22T03:49:16.067Z,-5.50
2019-01-22T03:54:58.855Z,-5.60
2019-01-22T04:00:10.710Z,-5.70
2019-01-22T04:05:14.707Z,-5.70
2019-01-22T04:10:31.053Z,-5.70
2019-01-22T04:15:38.602Z,-5.80
2019-01-22T04:20:45.467Z,-5.70
2019-01-22T04:26:15.046Z,-5.70
2019-01-22T04:31:43.378Z,-5.70
2019-01-22T04:37:34.678Z,-5.50
2019-01-22T04:43:02.936Z,-5.50
2019-01-22T04:48:43.069Z,-5.50
2019-01-22T04:54:29.070Z,-5.40
2019-01-22T05:00:03.760Z,-5.40
2019-01-22T05:05:23.734Z,-5.30
2019-01-22T05:10:53.099Z,-5.50
2019-01-22T05:16:28.860Z,-5.40
2019-01-22T05:22:04.819Z,-5.30
2019-01-22T05:27:32.973Z,-4.90
2019-01-22T05:32:54.812Z,-5.10
2019-01-22T05:38:40.212Z,-5.20
2019-01-22T05:44:52.660Z,-5.00
2019-01-22T05:50:28.686Z,-4.80
2019-01-22T05:55:39.243Z,-4.90
2019-01-22T06:00:57.474Z,-5.00
2019-01-22T06:06:31.262Z,-5.10
2019-01-22T06:12:14.222Z,-5.00
2019-01-22T06:17:50.320Z,-4.50
2019-01-22T06:23:47.865Z,-4.40
2019-01-22T06:29:39.781Z,-4.20
2019-01-22T06:35:16.260Z,-4.10
2019-01-22T06:41:11.460Z,-4.00
2019-01-22T06:46:29.858Z,-4.00
2019-01-22T06:52:20.604Z,-3.80
2019-01-22T06:58:09.213Z,-3.70
2019-01-22T07:03:43.892Z,-3.70
2019-01-22T07:09:34.676Z,-3.70
2019-01-22T07:15:17.759Z,-3.60
2019-01-22T07:20:58.278Z,-3.50
2019-01-22T07:26:37.932Z,-3.50
2019-01-22T07:32:12.301Z,-3.50
2019-01-22T07:37:22.776Z,-3.60
2019-01-22T07:42:51.508Z,-3.60
2019-01-22T07:48:21.711Z,-3.50
2019-01-22T07:53:40.906Z,-3.70
2019-01-22T07:59:20.970Z,-3.60
2019-01-22T08:05:40.175Z,-3.60
2019-01-22T08:11:37.658Z,-3.60
2019-01-22T08:17:11.608Z,-3.60
2019-01-22T08:22:59.458Z,-3.50
2019-01-22T08:28:39.962Z,-3.40
2019-01-22T08:34:22.664Z,-3.30
2019-01-22T08:39:48.398Z,-3.30
2019-01-22T08:45:40.971Z,-3.20
2019-01-22T08:51:16.236Z,-3.10
2019-01-22T08:56:44.396Z,-3.00
2019-01-22T09:02:21.180Z,-3.00
2019-01-22T09:07:59.596Z,-2.60
2019-01-22T09:13:48.730Z,-2.90
2019-01-22T09:19:16.260Z,-2.90
2019-01-22T09:24:47.786Z,-2.80
2019-01-22T09:30:24.502Z,-2.70
2019-01-22T09:36:16.243Z,-2.50
2019-01-22T09:41:20.746Z,-2.40
2019-01-22T09:46:25.210Z,-2.50
2019-01-22T09:51:30.356Z,-2.40
2019-01-22T09:56:35.270Z,-2.20
2019-01-22T10:01:41.005Z,-2.40
2019-01-22T10:06:45.554Z,-2.10
2019-01-22T10:11:50.014Z,-1.90
2019-01-22T10:16:54.746Z,-1.90
2019-01-22T10:21:59.718Z,-1.70
2019-01-22T10:27:04.216Z,-1.60
2019-01-22T10:32:08.472Z,-1.60
2019-01-22T10:37:12.738Z,-1.50
2019-01-22T10:42:16.894Z,-1.40
2019-01-22T10:47:21.912Z,-1.40
2019-01-22T10:52:27.849Z,-1.30
2019-01-22T10:57:32.736Z,-1.20
2019-01-22T11:02:37.867Z,-1.30
2019-01-22T11:07:43.187Z,-1.20
2019-01-22T11:12:48.705Z,-1.20
2019-01-22T11:17:54.027Z,-1.10
2019-01-22T11:22:58.930Z,-1.00
2019-01-22T11:28:04.784Z,-0.90
2019-01-22T11:33:10.532Z,-0.90
2019-01-22T11:38:15.748Z,-0.90
2019-01-22T11:43:21.770Z,-0.80
2019-01-22T11:48:28.814Z,-0.80
2019-01-22T11:53:34.026Z,-0.80
2019-01-22T11:58:39.444Z,-0.70
2019-01-22T12:03:44.684Z,-0.80
2019-01-22T12:08:49.660Z,-0.70
2019-01-22T12:13:54.784Z,-0.80
2019-01-22T12:19:00.039Z,-0.70
2019-01-22T12:24:05.177Z,-0.70
2019-01-22T12:29:10.547Z,-0.70
2019-01-22T12:34:15.299Z,-0.70
2019-01-22T12:39:20.402Z,-0.60
2019-01-22T12:44:26.167Z,-0.60
2019-01-22T12:49:31.970Z,-0.40
2019-01-22T12:54:37.960Z,-0.50
2019-01-22T13:00:05.738Z,-0.30
2019-01-22T13:05:14.466Z,-0.50
2019-01-22T13:10:19.921Z,-0.40
2019-01-22T13:15:24.129Z,-0.20
2019-01-22T13:20:30.156Z,-0.20
2019-01-22T13:25:34.896Z,-0.20
2019-01-22T13:30:40.976Z,-0.10
2019-01-22T13:35:45.446Z,-0.10
2019-01-22T13:40:50.164Z,-0.10
2019-01-22T13:45:54.253Z,0.00
2019-01-22T13:50:58.842Z,0.00
2019-01-22T13:56:04.458Z,0.10
2019-01-22T14:01:08.886Z,0.00
2019-01-22T14:06:13.538Z,0.10
2019-01-22T14:11:17.868Z,0.10
2019-01-22T14:16:22.671Z,0.10
2019-01-22T14:21:27.230Z,0.10
2019-01-22T14:26:31.589Z,0.00
2019-01-22T14:31:35.939Z,0.00
2019-01-22T14:36:40.582Z,0.00
2019-01-22T14:41:44.886Z,0.00
2019-01-22T14:46:49.491Z,-0.10
2019-01-22T14:51:53.802Z,-0.10
2019-01-22T14:56:58.354Z,0.00
2019-01-22T15:02:02.925Z,0.10
2019-01-22T15:07:07.381Z,-0.10
2019-01-22T15:12:12.157Z,-0.10
2019-01-22T15:17:16.471Z,0.00
2019-01-22T15:22:21.769Z,-0.10
2019-01-22T15:27:27.495Z,-0.20
2019-01-22T15:32:32.826Z,-0.20
2019-01-22T15:37:38.097Z,-0.20
2019-01-22T15:42:43.754Z,-0.10
2019-01-22T15:47:49.948Z,-0.20
2019-01-22T15:52:55.196Z,-0.20
2019-01-22T15:58:00.406Z,-0.20
2019-01-22T16:03:06.036Z,-0.20
2019-01-22T16:08:11.302Z,-0.20
2019-01-22T16:13:16.387Z,-0.20
2019-01-22T16:18:21.281Z,-0.30
2019-01-22T16:23:26.456Z,-0.30
2019-01-22T16:28:32.487Z,-0.30
2019-01-22T16:33:37.555Z,-0.40
2019-01-22T16:38:42.507Z,-0.40
2019-01-22T16:43:47.499Z,-0.40
2019-01-22T16:48:52.572Z,-0.50
2019-01-22T16:53:58.180Z,-0.50
2019-01-22T16:59:03.626Z,-0.40
2019-01-22T17:04:08.730Z,-0.40
2019-01-22T17:09:13.800Z,-0.40
2019-01-22T17:14:18.667Z,-0.60
2019-01-22T17:19:23.553Z,-0.60
2019-01-22T17:24:28.383Z,-0.70
2019-01-22T17:29:34.032Z,-0.60
2019-01-22T17:34:59.652Z,-0.70
2019-01-22T17:40:05.418Z,-0.70
2019-01-22T17:45:10.923Z,-0.60
2019-01-22T17:50:15.769Z,-0.70
2019-01-22T17:55:20.400Z,-0.70
2019-01-22T18:00:25.337Z,-0.70
2019-01-22T18:05:29.572Z,-0.60
2019-01-22T18:10:34.007Z,-0.60
2019-01-22T18:15:38.633Z,-0.70
2019-01-22T18:20:42.834Z,-0.50
2019-01-22T18:25:47.567Z,-0.50
2019-01-22T18:30:52.236Z,-0.60
2019-01-22T18:35:56.578Z,-0.50
2019-01-22T18:41:01.082Z,-0.50
2019-01-22T18:46:06.542Z,-0.60
2019-01-22T18:51:10.595Z,-0.60
2019-01-22T18:56:14.576Z,-0.50
2019-01-22T19:01:18.291Z,-0.50
2019-01-22T19:06:23.273Z,-0.60
2019-01-22T19:11:28.292Z,-0.40
2019-01-22T19:16:32.752Z,-0.40
2019-01-22T19:21:36.849Z,-0.50
2019-01-22T19:26:41.200Z,-0.50
2019-01-22T19:31:47.134Z,-0.40
2019-01-22T19:36:52.760Z,-0.50
2019-01-22T19:41:57.708Z,-0.50
2019-01-22T19:47:02.678Z,-0.40
2019-01-22T19:52:07.740Z,-0.40
2019-01-22T19:57:12.962Z,-0.30
2019-01-22T20:02:18.073Z,-0.30
2019-01-22T20:07:23.409Z,-0.30
2019-01-22T20:12:28.928Z,-0.20
2019-01-22T20:17:34.082Z,-0.30
2019-01-22T20:22:39.430Z,-0.30
2019-01-22T20:27:48.349Z,-0.30
2019-01-22T20:32:52.224Z,-0.20
2019-01-22T20:37:57.704Z,-0.20
2019-01-22T20:43:02.820Z,-0.20
2019-01-22T20:48:07.771Z,-0.30
2019-01-22T20:53:12.752Z,-0.30
2019-01-22T20:58:18.248Z,-0.30
2019-01-22T21:03:23.426Z,-0.30
2019-01-22T21:08:28.796Z,-0.30
2019-01-22T21:13:34.028Z,-0.40
2019-01-22T21:18:39.189Z,-0.40
2019-01-22T21:23:44.328Z,-0.40
2019-01-22T21:28:49.217Z,-0.40
2019-01-22T21:33:55.189Z,-0.40
2019-01-22T21:39:00.251Z,-0.40
2019-01-22T21:44:05.510Z,-0.40
2019-01-22T21:49:11.638Z,-0.40
2019-01-22T21:54:16.686Z,-0.40
2019-01-22T21:59:22.726Z,-0.50
2019-01-22T22:04:27.836Z,-0.50
2019-01-22T22:09:33.001Z,-0.40
2019-01-22T22:14:38.015Z,-0.50
2019-01-22T22:19:43.097Z,-0.50
2019-01-22T22:24:48.947Z,-0.40
2019-01-22T22:29:54.196Z,-0.40
2019-01-22T22:35:00.232Z,-0.50
2019-01-22T22:40:06.264Z,-0.50
2019-01-22T22:45:12.214Z,-0.50
2019-01-22T22:50:19.142Z,-0.50
2019-01-22T22:55:23.580Z,-0.50
2019-01-22T23:01:02.330Z,-0.50
2019-01-22T23:06:07.248Z,-0.50
2019-01-22T23:11:11.789Z,-0.60
2019-01-22T23:16:15.887Z,-0.50
2019-01-22T23:21:52.807Z,-0.50
2019-01-22T23:26:56.225Z,-0.50
2019-01-22T23:32:00.534Z,-0.50
2019-01-22T23:37:04.952Z,-0.60
2019-01-22T23:42:09.146Z,-0.60
2019-01-22T23:47:14.270Z,-0.70
2019-01-22T23:52:19.480Z,-0.70
2019-01-22T23:57:24.514Z,-0.60
